Time;durP1;ratioP1;P1;durP2;ratioP2;P2;SDS_P1;SDS_P2;PMS_P1;PMS_P2;Temp;Humidity;BMP_temperature;BMP_pressure;BME280_temperature;BME280_humidity;BME280_pressure;Samples;Min_cycle;Max_cycle;Signal;HPM_P1;HPM_P2
2021/03/09 00:01:33;;;;;;;23.08;13.55;;;128.30;1459.20;;;;;;5010851;28;20408;-73
2021/03/09 00:03:59;;;;;;;26.27;13.70;;;128.30;1459.20;;;;;;5009022;28;20117;-73
2021/03/09 00:06:24;;;;;;;22.05;13.57;;;128.30;1459.20;;;;;;5009476;28;20487;-73
2021/03/09 00:08:50;;;;;;;24.52;13.98;;;128.20;1459.20;;;;;;5010554;28;20026;-73
2021/03/09 00:11:16;;;;;;;32.90;15.68;;;128.20;1459.20;;;;;;5009986;28;20034;-72
2021/03/09 00:13:41;;;;;;;29.58;15.32;;;128.20;1484.80;;;;;;5010646;28;20030;-73
2021/03/09 00:16:07;;;;;;;27.95;15.85;;;128.20;1459.20;;;;;;5010202;28;20064;-73
2021/03/09 00:18:33;;;;;;;31.80;17.27;;;128.20;1459.20;;;;;;5010646;28;20030;-73
2021/03/09 00:20:58;;;;;;;40.97;19.25;;;128.20;1484.80;;;;;;5010393;28;20464;-73
2021/03/09 00:23:24;;;;;;;23.90;13.27;;;128.10;1484.80;;;;;;5010601;28;20025;-73
2021/03/09 00:25:50;;;;;;;28.20;15.25;;;128.10;1484.80;;;;;;5010363;28;20060;-74
2021/03/09 00:28:20;;;;;;;25.25;14.45;;;128.00;1484.80;;;;;;5010325;28;20476;-73
2021/03/09 00:30:46;;;;;;;23.38;14.77;;;128.10;1484.80;;;;;;5010289;28;20058;-73
2021/03/09 00:33:11;;;;;;;23.60;14.93;;;128.00;1484.80;;;;;;5012522;28;20084;-74
2021/03/09 00:35:37;;;;;;;25.33;14.43;;;128.00;1484.80;;;;;;5014010;28;20030;-73
2021/03/09 00:38:02;;;;;;;29.40;16.00;;;103.30;1484.80;;;;;;5014302;28;20025;-74
2021/03/09 00:40:28;;;;;;;30.23;17.17;;;103.20;1484.80;;;;;;5013991;28;20025;-74
2021/03/09 00:42:54;;;;;;;31.13;17.50;;;103.10;1484.80;;;;;;5012856;28;20026;-74
2021/03/09 00:45:20;;;;;;;31.95;17.50;;;103.10;1510.40;;;;;;5013933;28;20061;-73
2021/03/09 00:47:45;;;;;;;31.23;16.67;;;103.10;1510.40;;;;;;5012416;28;20060;-74
2021/03/09 00:50:11;;;;;;;25.38;15.18;;;103.10;1510.40;;;;;;5014054;28;20025;-74
2021/03/09 00:52:37;;;;;;;24.55;15.25;;;103.10;1510.40;;;;;;5013723;28;20498;-73
2021/03/09 00:55:03;;;;;;;30.83;17.52;;;103.00;1510.40;;;;;;5013795;28;20093;-71
2021/03/09 00:57:29;;;;;;;47.15;22.50;;;103.00;1510.40;;;;;;5012069;28;20503;-72
2021/03/09 00:59:54;;;;;;;50.03;25.67;;;103.00;1510.40;;;;;;5013675;28;20026;-72
2021/03/09 01:02:20;;;;;;;47.60;24.20;;;103.00;1536.00;;;;;;5013592;28;20034;-71
2021/03/09 01:04:46;;;;;;;38.08;20.92;;;102.80;1536.00;;;;;;5013647;28;20026;-72
2021/03/09 01:07:11;;;;;;;28.55;17.02;;;102.90;1536.00;;;;;;5013744;28;20532;-71
2021/03/09 01:09:37;;;;;;;30.45;15.55;;;102.90;1536.00;;;;;;5013626;28;20022;-72
2021/03/09 01:12:03;;;;;;;29.63;16.02;;;102.90;1510.40;;;;;;5013550;28;20105;-72
2021/03/09 01:14:29;;;;;;;23.95;15.43;;;102.90;1510.40;;;;;;5013276;28;20026;-72
2021/03/09 01:16:54;;;;;;;25.65;15.63;;;102.90;1510.40;;;;;;5013493;28;20080;-72
2021/03/09 01:19:20;;;;;;;22.50;14.95;;;102.90;1510.40;;;;;;5013362;28;20033;-71
2021/03/09 01:21:46;;;;;;;71.30;29.33;;;102.80;1510.40;;;;;;5013440;28;20109;-72
2021/03/09 01:24:11;;;;;;;60.17;26.88;;;102.80;1510.40;;;;;;5013382;28;20026;-71
2021/03/09 01:26:37;;;;;;;43.22;21.90;;;102.80;1510.40;;;;;;5013277;28;20022;-71
2021/03/09 01:29:03;;;;;;;38.38;19.48;;;102.70;1536.00;;;;;;5013497;28;20026;-71
2021/03/09 01:31:29;;;;;;;36.50;20.25;;;102.70;1536.00;;;;;;5012954;28;20034;-71
2021/03/09 01:33:54;;;;;;;33.97;19.08;;;102.60;1536.00;;;;;;5013316;28;20468;-71
2021/03/09 01:36:20;;;;;;;32.38;18.10;;;102.60;1561.60;;;;;;5013078;28;20049;-72
2021/03/09 01:38:46;;;;;;;32.95;17.60;;;102.50;1561.60;;;;;;5013333;28;20037;-71
2021/03/09 01:41:12;;;;;;;30.23;17.63;;;102.40;1561.60;;;;;;5013088;28;20037;-72
2021/03/09 01:43:38;;;;;;;26.20;16.77;;;102.40;1561.60;;;;;;5011663;28;20030;-72
2021/03/09 01:46:04;;;;;;;26.08;15.57;;;102.40;1587.20;;;;;;5011780;28;20033;-71
2021/03/09 01:48:40;;;;;;;27.33;15.65;;;77.70;1587.20;;;;;;5012732;28;20022;-72
2021/03/09 01:51:06;;;;;;;23.80;15.38;;;77.70;1587.20;;;;;;5013173;28;20513;-72
2021/03/09 01:53:32;;;;;;;23.75;15.60;;;77.60;1587.20;;;;;;5012944;28;20376;-72
2021/03/09 01:55:58;;;;;;;24.52;15.30;;;77.60;1612.80;;;;;;5012669;28;20026;-71
2021/03/09 01:58:26;;;;;;;27.48;15.43;;;77.60;1612.80;;;;;;5012826;28;20026;-71
2021/03/09 02:00:52;;;;;;;26.15;15.43;;;102.60;1612.80;;;;;;5012894;28;20053;-72
2021/03/09 02:03:17;;;;;;;25.83;15.23;;;77.60;1612.80;;;;;;5012683;28;20028;-73
2021/03/09 02:05:43;;;;;;;24.45;14.75;;;77.60;1612.80;;;;;;5012781;28;20025;-74
2021/03/09 02:08:09;;;;;;;23.17;15.27;;;77.60;1612.80;;;;;;5011199;28;20061;-74
2021/03/09 02:10:35;;;;;;;25.23;14.18;;;77.70;1612.80;;;;;;5011062;28;20038;-73
2021/03/09 02:13:06;;;;;;;27.20;16.27;;;77.70;1612.80;;;;;;5012277;28;20361;-73
2021/03/09 02:15:34;;;;;;;30.23;16.58;;;77.50;1638.40;;;;;;5012369;28;20054;-73
2021/03/09 02:18:15;;;;;;;25.95;16.13;;;77.60;1638.40;;;;;;5012287;28;20496;-74
2021/03/09 02:20:43;;;;;;;;;;;77.50;1638.40;;;;;;5012970;28;20072;-73
2021/03/09 02:23:46;;;;;;;30.45;16.90;;;77.50;1638.40;;;;;;5012148;28;19913;-74
2021/03/09 02:26:27;;;;;;;27.20;17.35;;;77.40;1638.40;;;;;;5012289;28;20034;-73
2021/03/09 02:29:19;;;;;;;28.43;17.57;;;77.40;1638.40;;;;;;5012364;28;20536;-74
2021/03/09 02:31:50;;;;;;;30.50;17.52;;;77.40;1612.80;;;;;;5012188;28;20034;-73
2021/03/09 02:34:22;;;;;;;30.30;18.13;;;77.40;1638.40;;;;;;5012295;28;20018;-73
2021/03/09 02:36:48;;;;;;;26.33;16.23;;;77.40;1638.40;;;;;;5011914;28;20034;-74
2021/03/09 02:39:15;;;;;;;30.73;17.20;;;77.30;1638.40;;;;;;5012180;28;20084;-74
2021/03/09 02:41:48;;;;;;;27.77;17.50;;;77.20;1638.40;;;;;;5011929;28;20026;-73
2021/03/09 02:44:19;;;;;;;26.55;16.13;;;77.20;1664.00;;;;;;5010421;28;20038;-73
2021/03/09 02:46:46;;;;;;;32.92;18.60;;;77.20;1664.00;;;;;;5011928;28;20053;-72
2021/03/09 02:49:13;;;;;;;33.95;18.42;;;77.20;1664.00;;;;;;5011896;28;20026;-73
2021/03/09 02:51:42;;;;;;;34.30;18.13;;;77.20;1664.00;;;;;;5010326;28;20380;-73
2021/03/09 02:54:09;;;;;;;34.15;19.25;;;77.10;1664.00;;;;;;5011163;28;20112;-73
2021/03/09 02:56:38;;;;;;;32.83;19.70;;;77.10;1689.60;;;;;;5011747;28;20033;-74
2021/03/09 02:59:07;;;;;;;33.20;18.23;;;77.00;1689.60;;;;;;5011757;28;20025;-73
2021/03/09 03:01:33;;;;;;;34.17;18.42;;;77.00;1689.60;;;;;;5010028;28;20033;-73
2021/03/09 03:03:59;;;;;;;31.48;18.00;;;76.90;1689.60;;;;;;5011430;28;20048;-72
2021/03/09 03:06:28;;;;;;;29.85;17.48;;;76.90;1689.60;;;;;;5011614;28;20033;-72
2021/03/09 03:08:56;;;;;;;29.77;17.65;;;76.90;1689.60;;;;;;5011773;28;20103;-72
2021/03/09 03:11:22;;;;;;;35.85;18.13;;;76.80;1715.20;;;;;;5011458;28;20025;-73
2021/03/09 03:13:52;;;;;;;30.55;17.65;;;52.10;1715.20;;;;;;5009175;28;20132;-73
2021/03/09 03:16:20;;;;;;;29.58;17.63;;;52.10;1715.20;;;;;;5011071;28;20081;-72
2021/03/09 03:18:47;;;;;;;33.22;18.50;;;52.00;1715.20;;;;;;5011470;28;20504;-72
2021/03/09 03:21:14;;;;;;;32.45;19.15;;;52.00;1740.80;;;;;;5010906;28;20109;-72
2021/03/09 03:23:42;;;;;;;35.95;20.33;;;51.90;1740.80;;;;;;5011402;28;20030;-73
2021/03/09 03:26:10;;;;;;;30.02;17.90;;;51.90;1740.80;;;;;;5011026;28;20052;-71
2021/03/09 03:28:43;;;;;;;29.20;17.48;;;51.90;1740.80;;;;;;5011128;28;20394;-72
2021/03/09 03:31:08;;;;;;;31.30;17.75;;;51.90;1740.80;;;;;;5010920;28;20346;-72
2021/03/09 03:33:34;;;;;;;32.10;19.90;;;51.90;1766.40;;;;;;5009459;28;20049;-72
2021/03/09 03:36:03;;;;;;;25.63;16.80;;;51.80;1766.40;;;;;;5010973;28;20025;-71
2021/03/09 03:38:33;;;;;;;30.00;18.33;;;51.80;1766.40;;;;;;5010833;28;20026;-71
2021/03/09 03:41:00;;;;;;;26.48;16.58;;;51.80;1766.40;;;;;;5010318;28;20033;-72
2021/03/09 03:43:26;;;;;;;30.92;17.05;;;51.80;1766.40;;;;;;5010717;28;20028;-72
2021/03/09 03:45:52;;;;;;;26.27;16.02;;;51.80;1766.40;;;;;;5011007;28;20022;-73
2021/03/09 03:48:17;;;;;;;28.77;17.63;;;51.80;1766.40;;;;;;5010809;28;20033;-72
2021/03/09 03:50:43;;;;;;;37.70;18.27;;;51.80;1766.40;;;;;;5009334;28;20481;-72
2021/03/09 03:53:28;;;;;;;30.33;18.27;;;51.80;1766.40;;;;;;5009396;28;20388;-73
2021/03/09 03:56:17;;;;;;;31.23;17.25;;;51.70;1766.40;;;;;;5009506;28;20014;-72
2021/03/09 03:58:44;;;;;;;31.35;18.08;;;51.70;1766.40;;;;;;5010863;28;20104;-72
2021/03/09 04:01:12;;;;;;;40.53;19.88;;;51.70;1766.40;;;;;;5010641;28;20022;-71
2021/03/09 04:03:39;;;;;;;35.78;19.52;;;51.70;1766.40;;;;;;5010669;28;20025;-72
2021/03/09 04:06:06;;;;;;;42.50;21.15;;;51.70;1766.40;;;;;;5010162;28;20485;-72
2021/03/09 04:08:42;;;;;;;42.45;22.00;;;51.70;1792.00;;;;;;5013201;28;20045;-73
2021/03/09 04:11:08;;;;;;;44.63;21.95;;;51.60;1792.00;;;;;;5014542;28;20026;-73
2021/03/09 04:13:37;;;;;;;39.42;21.80;;;51.60;1792.00;;;;;;5013332;28;20492;-74
2021/03/09 04:16:03;;;;;;;40.42;19.83;;;51.60;1792.00;;;;;;5014655;28;20405;-73
2021/03/09 04:18:30;;;;;;;35.53;20.33;;;51.60;1792.00;;;;;;5014468;28;20029;-74
2021/03/09 04:20:58;;;;;;;35.97;20.00;;;51.60;1792.00;;;;;;5014558;28;20080;-72
2021/03/09 04:23:26;;;;;;;32.78;19.77;;;51.50;1817.60;;;;;;5013218;28;20034;-73
2021/03/09 04:25:52;;;;;;;31.75;19.23;;;51.60;1817.60;;;;;;5014500;28;20026;-73
2021/03/09 04:28:19;;;;;;;35.47;18.65;;;51.50;1817.60;;;;;;5013055;28;20100;-73
2021/03/09 04:30:45;;;;;;;37.65;19.42;;;51.60;1817.60;;;;;;5014605;28;20022;-72
2021/03/09 04:33:11;;;;;;;34.53;20.13;;;51.60;1817.60;;;;;;5014476;28;20033;-73
2021/03/09 04:35:37;;;;;;;35.13;20.38;;;51.60;1817.60;;;;;;5014357;28;20100;-72
2021/03/09 04:38:04;;;;;;;32.05;20.23;;;;;;;;;;5014437;28;20029;-73
2021/03/09 04:40:31;;;;;;;30.42;20.38;;;51.60;1792.00;;;;;;5013939;28;20433;-73
2021/03/09 04:42:57;;;;;;;36.53;22.50;;;51.70;1792.00;;;;;;5013991;28;20080;-71
2021/03/09 04:45:23;;;;;;;44.90;25.55;;;51.70;1792.00;;;;;;5014218;28;20049;-71
2021/03/09 04:47:49;;;;;;;46.20;26.80;;;51.70;1792.00;;;;;;5012297;28;20052;-72
2021/03/09 04:50:16;;;;;;;51.50;26.55;;;51.70;1792.00;;;;;;5014127;28;20065;-71
2021/03/09 04:52:45;;;;;;;49.95;28.42;;;51.70;1792.00;;;;;;5012798;28;20037;-70
2021/03/09 04:55:13;;;;;;;41.28;25.10;;;51.70;1792.00;;;;;;5013940;28;20029;-71
2021/03/09 04:57:43;;;;;;;43.50;24.95;;;51.60;1817.60;;;;;;5012470;28;20491;-73
2021/03/09 05:00:11;;;;;;;36.75;23.27;;;51.60;1817.60;;;;;;5013669;28;20026;-74
2021/03/09 05:02:37;;;;;;;36.03;21.38;;;51.60;1817.60;;;;;;5013756;28;20073;-74
2021/03/09 05:05:04;;;;;;;35.45;21.50;;;51.60;1817.60;;;;;;5013919;28;20033;-71
2021/03/09 05:07:29;;;;;;;35.40;21.25;;;51.50;1817.60;;;;;;5013629;28;20029;-71
2021/03/09 05:09:55;;;;;;;38.42;22.05;;;51.60;1817.60;;;;;;5013624;28;20028;-71
2021/03/09 05:12:21;;;;;;;44.03;25.75;;;51.60;1817.60;;;;;;5013607;28;20065;-74
2021/03/09 05:14:47;;;;;;;36.70;21.45;;;51.60;1817.60;;;;;;5013208;28;20058;-71
2021/03/09 05:17:12;;;;;;;36.05;20.48;;;51.60;1817.60;;;;;;5013535;28;20057;-72
2021/03/09 05:19:38;;;;;;;39.40;23.17;;;51.60;1817.60;;;;;;5011741;28;20030;-71
2021/03/09 05:22:04;;;;;;;36.95;23.15;;;51.60;1817.60;;;;;;5013672;28;20018;-73
2021/03/09 05:24:30;;;;;;;42.65;26.67;;;51.60;1792.00;;;;;;5013198;28;20053;-73
2021/03/09 05:26:55;;;;;;;46.25;31.40;;;51.70;1792.00;;;;;;5013430;28;20026;-72
2021/03/09 05:29:21;;;;;;;53.15;32.00;;;51.70;1792.00;;;;;;5013210;28;20395;-73
2021/03/09 05:31:47;;;;;;;37.55;24.10;;;51.80;1792.00;;;;;;5012941;28;20037;-73
2021/03/09 05:34:13;;;;;;;52.42;30.80;;;51.70;1792.00;;;;;;5013204;28;20080;-73
2021/03/09 05:36:38;;;;;;;46.78;26.42;;;51.70;1792.00;;;;;;5013080;28;20022;-73
2021/03/09 05:39:04;;;;;;;33.00;21.90;;;51.70;1766.40;;;;;;5012940;28;20026;-71
2021/03/09 05:41:30;;;;;;;54.90;33.33;;;51.70;1766.40;;;;;;5012813;28;20022;-73
2021/03/09 05:43:56;;;;;;;102.05;55.80;;;51.70;1766.40;;;;;;5012767;28;20034;-74
2021/03/09 05:46:22;;;;;;;61.70;33.17;;;51.70;1740.80;;;;;;5012970;28;20052;-73
2021/03/09 05:48:48;;;;;;;107.05;52.45;;;51.80;1740.80;;;;;;5012737;28;20068;-73
2021/03/09 05:51:14;;;;;;;100.15;49.28;;;51.90;1715.20;;;;;;5011278;28;20033;-73
2021/03/09 05:53:40;;;;;;;109.95;53.08;;;51.70;1740.80;;;;;;5012588;28;20066;-73
2021/03/09 05:56:06;;;;;;;52.95;31.67;;;51.70;1740.80;;;;;;5012572;28;20057;-73
2021/03/09 05:58:32;;;;;;;51.28;32.55;;;51.70;1740.80;;;;;;5012811;28;20117;-72
2021/03/09 06:00:59;;;;;;;44.50;25.83;;;51.70;1740.80;;;;;;5012477;28;20029;-73
2021/03/09 06:03:26;;;;;;;38.30;23.05;;;51.70;1740.80;;;;;;5012872;28;20100;-73
2021/03/09 06:05:52;;;;;;;58.25;33.90;;;51.70;1740.80;;;;;;5012749;28;20022;-74
2021/03/09 06:08:18;;;;;;;44.33;26.73;;;51.80;1740.80;;;;;;5012628;28;20041;-74
2021/03/09 06:10:44;;;;;;;42.15;23.65;;;51.70;1740.80;;;;;;5012569;28;20061;-73
2021/03/09 06:13:29;;;;;;;73.65;40.42;;;51.80;1715.20;;;;;;5012089;28;20180;-73
2021/03/09 06:15:55;;;;;;;58.03;34.40;;;51.80;1740.80;;;;;;5012193;28;20045;-74
2021/03/09 06:18:25;;;;;;;71.18;41.42;;;51.80;1740.80;;;;;;5012391;28;20060;-74
2021/03/09 06:21:09;;;;;;;55.55;32.95;;;51.80;1715.20;;;;;;5012233;28;20044;-75
2021/03/09 06:23:36;;;;;;;63.72;34.72;;;51.80;1715.20;;;;;;5010889;28;20035;-75
2021/03/09 06:26:03;;;;;;;63.22;35.85;;;51.80;1715.20;;;;;;5012348;28;20080;-76
2021/03/09 06:28:30;;;;;;;80.00;42.08;;;51.80;1715.20;;;;;;5010254;28;20026;-77
2021/03/09 06:30:59;;;;;;;53.80;29.42;;;51.90;1689.60;;;;;;5011860;28;20430;-80
2021/03/09 06:33:32;;;;;;;54.53;29.65;;;51.90;1689.60;;;;;;5010984;28;20052;-76
2021/03/09 06:36:00;;;;;;;62.30;34.17;;;52.00;1689.60;;;;;;5012119;28;20055;-74
2021/03/09 06:38:30;;;;;;;50.55;28.42;;;52.10;1689.60;;;;;;5012356;28;20405;-76
2021/03/09 06:41:23;;;;;;;53.03;30.70;;;52.10;1715.20;;;;;;5011123;28;20094;-74
2021/03/09 06:44:03;;;;;;;51.17;30.10;;;52.10;1689.60;;;;;;5009671;28;20045;-74
2021/03/09 06:46:29;;;;;;;53.50;32.92;;;52.00;1689.60;;;;;;5011845;28;20366;-82
2021/03/09 06:49:03;;;;;;;34.03;20.52;;;52.10;1664.00;;;;;;5012468;28;20109;-71
2021/03/09 06:51:33;;;;;;;41.17;23.98;;;76.80;1664.00;;;;;;5012373;28;20022;-74
2021/03/09 06:53:58;;;;;;;36.88;21.95;;;52.10;1689.60;;;;;;5012668;28;20439;-74
2021/03/09 06:56:27;;;;;;;33.13;21.00;;;76.90;1664.00;;;;;;5012038;28;20110;-73
2021/03/09 06:58:53;;;;;;;44.53;27.45;;;77.00;1664.00;;;;;;5012321;28;20443;-74
2021/03/09 07:01:20;;;;;;;41.17;25.75;;;76.90;1664.00;;;;;;5011769;28;20101;-83
2021/03/09 07:03:45;;;;;;;43.42;25.70;;;77.00;1689.60;;;;;;5010507;28;20117;-76
2021/03/09 07:06:11;;;;;;;42.95;25.65;;;77.00;1664.00;;;;;;5011964;28;20113;-77
2021/03/09 07:08:37;;;;;;;81.97;46.35;;;77.10;1638.40;;;;;;5009934;28;20049;-76
2021/03/09 07:11:03;;;;;;;54.50;32.88;;;77.20;1638.40;;;;;;5011661;28;20029;-73
2021/03/09 07:13:29;;;;;;;39.92;25.42;;;77.20;1638.40;;;;;;5010138;28;20076;-84
2021/03/09 07:15:56;;;;;;;45.45;28.92;;;77.30;1638.40;;;;;;5011387;28;20061;-86
2021/03/09 07:18:26;;;;;;;349.67;147.57;;;77.40;1612.80;;;;;;5010577;28;20030;-73
2021/03/09 07:20:54;;;;;;;179.52;78.93;;;77.40;1612.80;;;;;;5011830;28;20022;-88
2021/03/09 07:23:25;;;;;;;60.10;32.88;;;77.50;1612.80;;;;;;5011690;28;20484;-87
2021/03/09 07:25:59;;;;;;;253.68;130.15;;;77.40;1612.80;;;;;;5012156;28;20068;-88
2021/03/09 07:28:39;;;;;;;202.77;94.47;;;77.40;1638.40;;;;;;5011908;28;20037;-84
2021/03/09 07:31:06;;;;;;;76.28;37.60;;;77.50;1638.40;;;;;;5011928;28;20036;-79
2021/03/09 07:33:34;;;;;;;51.83;28.45;;;77.60;1638.40;;;;;;5011624;28;20043;-85
2021/03/09 07:36:03;;;;;;;33.63;18.10;;;77.70;1612.80;;;;;;5010074;28;20106;-85
2021/03/09 07:38:30;;;;;;;35.00;18.95;;;77.70;1612.80;;;;;;5011609;28;20025;-85
2021/03/09 07:40:56;;;;;;;50.47;25.77;;;77.70;1612.80;;;;;;5011688;28;20342;-76
2021/03/09 07:43:22;;;;;;;43.05;22.98;;;102.40;1587.20;;;;;;5011751;28;20026;-82
2021/03/09 07:45:48;;;;;;;82.38;43.35;;;102.50;1587.20;;;;;;5010971;28;20033;-85
2021/03/09 07:48:20;;;;;;;67.68;36.42;;;102.60;1561.60;;;;;;5010469;28;20056;-85
2021/03/09 07:50:46;;;;;;;;;;;102.60;1561.60;;;;;;5010668;28;20064;-85
2021/03/09 07:53:13;;;;;;;68.35;35.03;;;102.80;1561.60;;;;;;5011281;28;19913;-84
2021/03/09 07:55:41;;;;;;;235.05;95.18;;;102.80;1561.60;;;;;;5011002;28;20524;-86
2021/03/09 07:58:21;;;;;;;294.58;123.82;;;102.90;1536.00;;;;;;5010038;28;20049;-77
2021/03/09 08:00:52;;;;;;;185.93;91.75;;;102.90;1510.40;;;;;;5009348;28;20026;-78
2021/03/09 08:03:23;;;;;;;248.43;118.68;;;103.00;1510.40;;;;;;5011783;28;20105;-80
2021/03/09 08:06:16;;;;;;;66.00;38.13;;;103.00;1510.40;;;;;;5012473;28;20376;-84
2021/03/09 08:08:53;;;;;;;46.45;25.75;;;103.10;1536.00;;;;;;5009241;28;20033;-72
2021/03/09 08:11:19;;;;;;;92.30;47.42;;;103.10;1484.80;;;;;;5010616;28;20053;-72
2021/03/09 08:14:04;;;;;;;87.63;52.78;;;103.20;1510.40;;;;;;5010709;28;20042;-73
2021/03/09 08:16:43;;;;;;;69.60;53.50;;;103.30;1484.80;;;;;;5010446;28;20056;-72
2021/03/09 08:19:24;;;;;;;85.20;55.47;;;128.00;1510.40;;;;;;5010405;28;20427;-71
2021/03/09 08:22:06;;;;;;;49.33;28.88;;;128.00;1510.40;;;;;;5005919;28;20021;-72
2021/03/09 08:24:41;;;;;;;34.85;19.80;;;128.20;1510.40;;;;;;5007397;28;20477;-72
2021/03/09 08:27:36;;;;;;;32.55;19.48;;;128.20;1484.80;;;;;;5008416;28;20034;-74
2021/03/09 08:30:25;;;;;;;31.65;18.25;;;128.20;1484.80;;;;;;5000675;28;20480;-74
2021/03/09 08:32:51;;;;;;;35.60;19.10;;;128.30;1484.80;;;;;;5007130;28;20081;-73
2021/03/09 08:35:18;;;;;;;34.78;19.30;;;128.30;1484.80;;;;;;5007874;28;20049;-73
2021/03/09 08:37:49;;;;;;;33.70;20.30;;;128.30;1459.20;;;;;;5008068;28;20132;-73
2021/03/09 08:40:16;;;;;;;31.70;18.33;;;128.40;1484.80;;;;;;5007945;28;20026;-71
2021/03/09 08:43:00;;;;;;;43.08;24.02;;;128.50;1484.80;;;;;;5009562;28;20025;-72
2021/03/09 08:45:41;;;;;;;43.00;23.95;;;128.60;1484.80;;;;;;5007775;28;20023;-72
2021/03/09 08:48:09;;;;;;;39.92;21.90;;;128.70;1459.20;;;;;;5008037;28;20060;-71
2021/03/09 08:50:48;;;;;;;44.45;24.65;;;128.80;1459.20;;;;;;5009329;28;20025;-74
2021/03/09 08:53:25;;;;;;;52.35;30.92;;;128.80;1459.20;;;;;;5011538;28;20053;-71
2021/03/09 08:55:58;;;;;;;50.90;27.58;;;128.90;1459.20;;;;;;5011396;28;20072;-73
2021/03/09 08:58:25;;;;;;;40.92;24.10;;;153.60;1459.20;;;;;;5013414;28;20018;-79
2021/03/09 09:00:51;;;;;;;74.75;42.47;;;153.60;1433.60;;;;;;5012915;28;20033;-73
2021/03/09 09:03:33;;;;;;;53.63;31.95;;;153.80;1433.60;;;;;;5010304;28;20029;-85
2021/03/09 09:05:59;;;;;;;39.00;23.40;;;153.80;1433.60;;;;;;5010015;28;20026;-74
2021/03/09 09:08:25;;;;;;;35.55;22.15;;;153.80;1408.00;;;;;;5012922;28;20672;-75
2021/03/09 09:10:51;;;;;;;53.35;28.17;;;153.80;1408.00;;;;;;5012919;28;20033;-77
2021/03/09 09:13:30;;;;;;;78.68;43.85;;;153.90;1433.60;;;;;;5010115;28;20088;-75
2021/03/09 09:15:55;;;;;;;80.88;42.15;;;154.00;1433.60;;;;;;5012642;28;20038;-78
2021/03/09 09:18:23;;;;;;;29.92;17.55;;;154.00;1433.60;;;;;;5013021;28;20025;-75
2021/03/09 09:20:50;;;;;;;31.73;18.20;;;154.10;1408.00;;;;;;5012205;28;20014;-72
2021/03/09 09:23:26;;;;;;;27.77;17.70;;;154.10;1382.40;;;;;;5010906;28;20085;-73
2021/03/09 09:25:55;;;;;;;21.33;14.13;;;154.20;1382.40;;;;;;5012754;28;20172;-72
2021/03/09 09:28:30;;;;;;;23.67;14.30;;;154.30;1382.40;;;;;;5008886;28;20064;-78
2021/03/09 09:30:59;;;;;;;22.13;14.32;;;154.30;1356.80;;;;;;5011027;28;20480;-75
2021/03/09 09:33:28;;;;;;;20.73;14.25;;;154.20;1356.80;;;;;;5012767;28;20038;-81
2021/03/09 09:35:54;;;;;;;25.65;15.75;;;154.20;1356.80;;;;;;5011256;28;20472;-75
2021/03/09 09:38:20;;;;;;;30.25;17.63;;;154.30;1356.80;;;;;;5011509;28;20161;-77
2021/03/09 09:40:50;;;;;;;64.57;39.42;;;154.40;1356.80;;;;;;5012789;28;20021;-76
2021/03/09 09:43:24;;;;;;;36.40;22.90;;;154.50;1382.40;;;;;;5011512;28;20029;-74
2021/03/09 09:45:56;;;;;;;33.70;21.52;;;179.20;1382.40;;;;;;5011861;28;20071;-76
2021/03/09 09:48:22;;;;;;;;;;;179.40;1382.40;;;;;;5010780;28;20033;-74
2021/03/09 09:50:52;;;;;;;24.55;16.30;;;179.50;1356.80;;;;;;5010428;28;19909;-75
2021/03/09 09:53:35;;;;;;;31.73;19.35;;;179.60;1305.60;;;;;;5009039;28;20038;-79
2021/03/09 09:56:03;;;;;;;27.38;16.00;;;179.70;1305.60;;;;;;5019609;28;20091;-77
2021/03/09 09:58:45;;;;;;;33.22;20.80;;;179.80;1305.60;;;;;;5016672;28;20093;-81
2021/03/09 10:01:17;;;;;;;81.18;60.53;;;179.90;1280.00;;;;;;5017039;28;20042;-86
2021/03/09 10:03:56;;;;;;;24.13;14.40;;;180.00;1280.00;;;;;;5013060;28;20026;-86
2021/03/09 10:06:24;;;;;;;36.33;22.00;;;180.10;1228.80;;;;;;5015685;28;20156;-90
2021/03/09 10:08:50;;;;;;;39.50;25.85;;;204.80;1254.40;;;;;;5017524;28;20033;-86
2021/03/09 10:11:17;;;;;;;46.03;31.83;;;204.90;1254.40;;;;;;5012622;28;20026;-72
2021/03/09 10:13:43;;;;;;;24.25;16.15;;;205.00;1228.80;;;;;;5011461;28;20039;-72
2021/03/09 10:16:09;;;;;;;24.02;14.75;;;205.00;1203.20;;;;;;5011427;28;20048;-75
2021/03/09 10:18:36;;;;;;;30.80;19.95;;;205.10;1203.20;;;;;;5011834;28;20022;-84
2021/03/09 10:21:09;;;;;;;32.38;18.50;;;205.10;1177.60;;;;;;5010224;28;20021;-71
2021/03/09 10:23:56;;;;;;;25.83;17.02;;;205.10;1152.00;;;;;;5011675;28;20524;-72
2021/03/09 10:26:34;;;;;;;31.30;18.77;;;205.20;1177.60;;;;;;5007047;28;20022;-71
2021/03/09 10:29:02;;;;;;;26.88;17.23;;;205.30;1152.00;;;;;;5008593;28;20033;-72
2021/03/09 10:31:47;;;;;;;43.25;24.83;;;205.30;1177.60;;;;;;5011195;28;20101;-71
2021/03/09 10:34:14;;;;;;;39.67;22.92;;;205.40;1152.00;;;;;;5010602;28;20435;-71
2021/03/09 10:37:02;;;;;;;29.33;16.90;;;205.60;1126.40;;;;;;5008509;28;20100;-71
2021/03/09 10:39:30;;;;;;;45.53;30.92;;;205.60;1126.40;;;;;;5009637;28;20499;-73
2021/03/09 10:41:57;;;;;;;49.08;30.42;;;205.60;1126.40;;;;;;5009485;28;20033;-71
2021/03/09 10:44:31;;;;;;;37.47;25.38;;;205.70;1126.40;;;;;;5010655;28;20503;-73
2021/03/09 10:46:57;;;;;;;28.40;17.92;;;230.40;1126.40;;;;;;5011012;28;20435;-71
2021/03/09 10:49:23;;;;;;;31.77;22.15;;;230.60;1126.40;;;;;;5010228;28;20376;-75
2021/03/09 10:52:07;;;;;;;26.08;16.92;;;230.50;1100.80;;;;;;5009658;28;20018;-77
2021/03/09 10:54:33;;;;;;;27.83;16.85;;;230.60;1126.40;;;;;;5010745;28;20034;-78
2021/03/09 10:57:02;;;;;;;25.20;15.75;;;230.60;1100.80;;;;;;5007659;28;20349;-72
2021/03/09 10:59:27;;;;;;;38.50;25.10;;;230.70;1075.20;;;;;;5010542;28;20018;-71
2021/03/09 11:01:53;;;;;;;44.58;24.20;;;230.70;1100.80;;;;;;5008044;28;20117;-73
2021/03/09 11:04:19;;;;;;;17.13;12.50;;;230.80;1100.80;;;;;;5010403;28;20380;-74
2021/03/09 11:06:45;;;;;;;27.75;16.77;;;230.80;1024.00;;;;;;5010710;28;20018;-71
2021/03/09 11:09:10;;;;;;;31.05;17.52;;;230.80;1075.20;;;;;;5010635;28;20022;-72
2021/03/09 11:11:36;;;;;;;65.00;29.33;;;230.90;1100.80;;;;;;5010273;28;20026;-75
2021/03/09 11:14:02;;;;;;;61.92;32.13;;;230.90;1049.60;;;;;;5009057;28;20073;-72
2021/03/09 11:16:30;;;;;;;30.90;19.45;;;231.00;1075.20;;;;;;5008673;28;20073;-71
2021/03/09 11:18:57;;;;;;;32.67;19.70;;;230.90;1049.60;;;;;;5008960;28;20380;-71
2021/03/09 11:21:23;;;;;;;47.88;32.92;;;231.00;998.40;;;;;;5010043;28;20014;-71
2021/03/09 11:23:51;;;;;;;24.15;15.80;;;230.90;1024.00;;;;;;5010129;28;20420;-71
2021/03/09 11:26:24;;;;;;;25.73;16.83;;;230.90;1024.00;;;;;;5010146;28;20044;-77
2021/03/09 11:28:53;;;;;;;19.23;13.18;;;231.00;1024.00;;;;;;5010080;28;20014;-71
2021/03/09 11:31:20;;;;;;;18.05;13.05;;;231.00;1024.00;;;;;;5010343;28;20022;-70
2021/03/09 11:33:47;;;;;;;21.15;14.63;;;231.10;1024.00;;;;;;5010232;28;20080;-75
2021/03/09 11:36:13;;;;;;;18.88;12.30;;;231.10;1024.00;;;;;;5010227;28;20018;-82
2021/03/09 11:38:43;;;;;;;18.70;12.63;;;231.20;1024.00;;;;;;5011067;28;20760;-79
2021/03/09 11:41:10;;;;;;;19.48;13.30;;;231.20;1024.00;;;;;;5010708;28;20520;-79
2021/03/09 11:43:36;;;;;;;25.88;15.82;;;231.30;1024.00;;;;;;5010297;28;20022;-77
2021/03/09 11:46:02;;;;;;;50.03;32.38;;;231.10;1024.00;;;;;;5011578;28;20384;-85
2021/03/09 11:48:28;;;;;;;41.70;26.17;;;231.30;998.40;;;;;;5009417;28;20149;-84
2021/03/09 11:50:53;;;;;;;43.03;26.55;;;231.20;998.40;;;;;;5008598;28;20125;-73
2021/03/09 11:53:19;;;;;;;36.97;21.90;;;231.30;998.40;;;;;;5009897;28;20026;-72
2021/03/09 11:55:45;;;;;;;27.98;16.27;;;231.30;998.40;;;;;;5009111;28;20772;-72
2021/03/09 11:58:11;;;;;;;37.25;20.85;;;231.30;972.80;;;;;;5008720;28;20088;-72
2021/03/09 12:00:37;;;;;;;34.53;21.30;;;256.00;972.80;;;;;;5010000;28;20014;-72
2021/03/09 12:03:03;;;;;;;52.42;30.73;;;256.00;972.80;;;;;;5010155;28;20021;-75
2021/03/09 12:05:29;;;;;;;30.63;17.77;;;256.00;998.40;;;;;;5008467;28;20025;-73
2021/03/09 12:07:55;;;;;;;42.50;22.38;;;256.00;972.80;;;;;;5008506;28;20026;-76
2021/03/09 12:10:21;;;;;;;39.50;21.77;;;256.10;972.80;;;;;;5006411;28;20022;-76
2021/03/09 12:12:46;;;;;;;43.95;25.10;;;256.00;947.20;;;;;;5009851;28;20042;-73